createdAt,value
2023-03-06T00:00:01.877Z,99779.99
2023-03-06T00:02:52.976Z,99777.98
2023-03-06T00:05:35.011Z,99775.07
2023-03-06T00:08:16.150Z,99775.11
2023-03-06T00:11:07.427Z,99772.89
2023-03-06T00:13:45.650Z,99773.25
2023-03-06T00:16:27.912Z,99773.77
2023-03-06T00:19:12.726Z,99768.40
2023-03-06T00:21:44.233Z,99764.08
2023-03-06T00:24:18.155Z,99760.10
2023-03-06T00:27:10.081Z,99755.19
2023-03-06T00:30:02.533Z,99752.20
2023-03-06T00:32:46.014Z,99747.61
2023-03-06T00:35:24.090Z,99748.41
2023-03-06T00:37:59.723Z,99746.58
2023-03-06T00:40:44.570Z,99746.14
2023-03-06T00:43:35.376Z,99746.27
2023-03-06T00:46:14.189Z,99746.02
2023-03-06T00:49:05.010Z,99749.61
2023-03-06T00:51:38.453Z,99746.39
2023-03-06T00:54:23.514Z,99743.75
2023-03-06T00:57:04.622Z,99743.04
2023-03-06T00:59:55.726Z,99740.55
2023-03-06T01:02:36.916Z,99731.48
2023-03-06T01:05:11.637Z,99725.77
2023-03-06T01:07:42.701Z,99722.64
2023-03-06T01:10:33.958Z,99723.16
2023-03-06T01:13:17.241Z,99720.25
2023-03-06T01:16:05.922Z,99717.83
2023-03-06T01:18:48.656Z,99709.59
2023-03-06T01:21:22.501Z,99709.31
2023-03-06T01:24:13.218Z,99702.42
2023-03-06T01:27:04.120Z,99700.35
2023-03-06T01:29:37.285Z,99694.20
2023-03-06T01:32:22.634Z,99689.95
2023-03-06T01:35:14.402Z,99682.09
2023-03-06T01:38:05.260Z,99682.95
2023-03-06T01:40:40.559Z,99680.33
2023-03-06T01:43:32.040Z,99666.47
2023-03-06T01:46:38.990Z,99672.07
2023-03-06T01:49:14.052Z,99662.33
2023-03-06T01:51:52.420Z,99658.61
2023-03-06T01:54:46.211Z,99653.80
2023-03-06T01:57:31.778Z,99652.09
2023-03-06T02:00:08.185Z,99650.06
2023-03-06T02:02:48.726Z,99651.23
2023-03-06T02:05:20.122Z,99647.44
2023-03-06T02:07:55.786Z,99648.17
2023-03-06T02:10:58.462Z,99647.46
2023-03-06T02:13:50.742Z,99647.29
2023-03-06T02:16:42.983Z,99643.91
2023-03-06T02:19:30.933Z,99638.27
2023-03-06T02:22:23.433Z,99640.84
2023-03-06T02:25:26.842Z,99636.27
2023-03-06T02:27:58.333Z,99633.45
2023-03-06T02:30:52.305Z,99634.77
2023-03-06T02:33:43.295Z,99630.04
2023-03-06T02:36:18.752Z,99625.98
2023-03-06T02:39:00.522Z,99619.06
2023-03-06T02:41:51.473Z,99618.65
2023-03-06T02:44:42.318Z,99617.08
2023-03-06T02:47:33.163Z,99610.77
2023-03-06T02:50:17.280Z,99606.39
2023-03-06T02:53:08.323Z,99599.40
2023-03-06T02:55:59.249Z,99598.67
2023-03-06T02:58:50.210Z,99594.31
2023-03-06T03:01:31.249Z,99597.40
2023-03-06T03:04:22.313Z,99593.58
2023-03-06T03:07:13.268Z,99591.98
2023-03-06T03:10:04.323Z,99587.60
2023-03-06T03:12:37.813Z,99586.74
2023-03-06T03:15:28.760Z,99582.05
2023-03-06T03:18:19.592Z,99582.92
2023-03-06T03:21:12.398Z,99579.08
2023-03-06T03:23:52.585Z,99576.98
2023-03-06T03:26:35.796Z,99571.94
2023-03-06T03:29:26.674Z,99577.31
2023-03-06T03:32:17.772Z,99577.32
2023-03-06T03:35:11.604Z,99571.58
2023-03-06T03:38:02.546Z,99568.44
2023-03-06T03:40:53.410Z,99567.42
2023-03-06T03:43:45.074Z,99563.08
2023-03-06T03:46:26.397Z,99564.19
2023-03-06T03:49:17.262Z,99560.02
2023-03-06T03:52:08.391Z,99560.59
2023-03-06T03:54:59.576Z,99556.97
2023-03-06T03:57:43.266Z,99559.63
2023-03-06T04:00:34.133Z,99555.16
2023-03-06T04:03:24.945Z,99555.17
2023-03-06T04:05:59.464Z,99548.08
2023-03-06T04:08:50.643Z,99548.48
2023-03-06T04:11:41.469Z,99544.85
2023-03-06T04:14:32.353Z,99543.17
2023-03-06T04:17:22.231Z,99545.30
2023-03-06T04:20:14.584Z,99536.09
2023-03-06T04:22:55.428Z,99536.65
2023-03-06T04:25:46.737Z,99534.73
2023-03-06T04:28:37.628Z,99536.98
2023-03-06T04:31:28.581Z,99533.67
2023-03-06T04:34:19.436Z,99530.35
2023-03-06T04:37:13.923Z,99525.65
2023-03-06T04:40:05.291Z,99518.33
2023-03-06T04:42:55.353Z,99517.63
2023-03-06T04:45:46.319Z,99523.52
2023-03-06T04:48:27.392Z,99521.09
2023-03-06T04:50:58.152Z,99519.55
2023-03-06T04:53:48.960Z,99518.16
2023-03-06T04:56:39.843Z,99516.95
2023-03-06T04:59:30.676Z,99514.17
2023-03-06T05:02:22.141Z,99507.56
2023-03-06T05:05:14.906Z,99511.80
2023-03-06T05:08:06.256Z,99509.92
2023-03-06T05:10:59.942Z,99508.91
2023-03-06T05:13:40.940Z,99505.84
2023-03-06T05:16:32.033Z,99506.61
2023-03-06T05:19:22.988Z,99503.16
2023-03-06T05:22:13.954Z,99504.77
2023-03-06T05:24:49.596Z,99507.23
2023-03-06T05:27:40.963Z,99507.09
2023-03-06T05:30:23.217Z,99506.94
2023-03-06T05:33:13.100Z,99503.83
2023-03-06T05:35:49.726Z,99502.98
2023-03-06T05:38:23.353Z,99504.39
2023-03-06T05:41:15.689Z,99504.05
2023-03-06T05:44:07.051Z,99507.41
2023-03-06T05:46:58.273Z,99505.41
2023-03-06T05:49:49.326Z,99511.36
2023-03-06T05:52:39.547Z,99508.97
2023-03-06T05:55:30.974Z,99510.44
2023-03-06T05:58:21.917Z,99505.27
2023-03-06T06:01:13.403Z,99506.48
2023-03-06T06:04:04.450Z,99507.05
2023-03-06T06:06:57.164Z,99509.73
2023-03-06T06:09:47.206Z,99511.15
2023-03-06T06:12:38.180Z,99514.50
2023-03-06T06:15:29.272Z,99508.63
2023-03-06T06:18:12.584Z,99500.20
2023-03-06T06:21:07.336Z,99508.52
2023-03-06T06:24:18.958Z,99501.40
2023-03-06T06:27:10.287Z,99503.16
2023-03-06T06:30:01.294Z,99506.11
2023-03-06T06:32:32.421Z,99503.67
2023-03-06T06:35:17.750Z,99504.04
2023-03-06T06:37:57.483Z,99498.98
2023-03-06T06:41:19.089Z,99504.38
2023-03-06T06:43:49.462Z,99501.81
2023-03-06T06:47:20.902Z,99508.21
2023-03-06T06:49:54.730Z,99508.04
2023-03-06T06:52:45.828Z,99512.88
2023-03-06T06:55:27.885Z,99517.36
2023-03-06T06:58:19.047Z,99521.11
2023-03-06T07:01:07.834Z,99522.30
2023-03-06T07:03:49.929Z,99520.67
2023-03-06T07:06:39.346Z,99526.50
2023-03-06T07:09:31.525Z,99529.95
2023-03-06T07:12:16.148Z,99530.27
2023-03-06T07:15:09.427Z,99533.55
2023-03-06T07:18:01.415Z,99534.00
2023-03-06T07:20:54.102Z,99532.25
2023-03-06T07:23:35.377Z,99534.48
2023-03-06T07:26:26.562Z,99533.71
2023-03-06T07:29:18.009Z,99525.88
2023-03-06T07:32:19.253Z,99526.18
2023-03-06T07:35:19.800Z,99525.42
2023-03-06T07:38:12.395Z,99526.02
2023-03-06T07:40:46.290Z,99521.08
2023-03-06T07:43:30.386Z,99520.60
2023-03-06T07:46:05.211Z,99517.20
2023-03-06T07:48:56.172Z,99516.25
2023-03-06T07:51:47.365Z,99516.98
2023-03-06T07:54:38.284Z,99514.88
2023-03-06T07:57:29.331Z,99515.78
2023-03-06T08:00:21.759Z,99517.74
2023-03-06T08:03:13.003Z,99516.91
2023-03-06T08:06:05.468Z,99517.84
2023-03-06T08:08:57.632Z,99521.33
2023-03-06T08:11:48.652Z,99523.84
2023-03-06T08:14:24.820Z,99526.55
2023-03-06T08:17:10.391Z,99527.20
2023-03-06T08:20:01.770Z,99530.77
2023-03-06T08:22:43.317Z,99532.28
2023-03-06T08:25:33.911Z,99532.92
2023-03-06T08:28:25.272Z,99535.00
2023-03-06T08:31:22.626Z,99533.86
2023-03-06T08:34:57.259Z,99538.33
2023-03-06T08:37:10.482Z,99543.50
2023-03-06T08:39:55.059Z,99548.05
2023-03-06T08:42:46.082Z,99551.94
2023-03-06T08:45:24.562Z,99553.96
2023-03-06T08:48:15.999Z,99553.64
2023-03-06T08:51:09.677Z,99550.17
2023-03-06T08:53:43.434Z,99547.11
2023-03-06T08:56:35.649Z,99552.61
2023-03-06T08:59:09.523Z,99555.55
2023-03-06T09:02:00.820Z,99556.13
2023-03-06T09:04:51.892Z,99558.11
2023-03-06T09:07:23.131Z,99556.77
2023-03-06T09:10:04.910Z,99559.52
2023-03-06T09:12:56.112Z,99562.24
2023-03-06T09:15:27.495Z,99563.42
2023-03-06T09:18:01.914Z,99561.93
2023-03-06T09:20:52.177Z,99559.23
2023-03-06T09:23:34.250Z,99557.84
2023-03-06T09:26:14.602Z,99555.42
2023-03-06T09:29:05.684Z,99559.19
2023-03-06T09:31:56.861Z,99558.86
2023-03-06T09:34:30.895Z,99559.52
2023-03-06T09:37:06.870Z,99560.47
2023-03-06T09:39:51.325Z,99558.30
2023-03-06T09:42:41.428Z,99554.66
2023-03-06T09:45:15.566Z,99556.27
2023-03-06T09:48:12.552Z,99554.88
2023-03-06T09:51:10.288Z,99557.15
2023-03-06T09:54:13.965Z,99556.98
2023-03-06T09:57:09.763Z,99554.48
2023-03-06T09:59:55.894Z,99550.66
2023-03-06T10:02:37.339Z,99555.80
2023-03-06T10:05:24.579Z,99553.75
2023-03-06T10:08:02.625Z,99552.38
2023-03-06T10:11:00.283Z,99551.46
2023-03-06T10:13:47.169Z,99555.10
2023-03-06T10:16:33.876Z,99553.14
2023-03-06T10:19:29.060Z,99554.35
2023-03-06T10:22:24.749Z,99553.08
2023-03-06T10:25:04.309Z,99554.02
2023-03-06T10:28:04.606Z,99555.59
2023-03-06T10:30:51.887Z,99554.20
2023-03-06T10:33:55.495Z,99555.70
2023-03-06T10:36:46.570Z,99557.29
2023-03-06T10:39:38.243Z,99556.61
2023-03-06T10:42:18.333Z,99555.78
2023-03-06T10:45:14.930Z,99548.12
2023-03-06T10:51:31.242Z,99554.09
2023-03-06T10:54:22.596Z,99552.38
2023-03-06T10:57:28.489Z,99554.95
2023-03-06T11:00:30.808Z,99556.14
2023-03-06T11:03:21.273Z,99553.55
2023-03-06T11:06:04.603Z,99556.88
2023-03-06T11:08:40.037Z,99555.30
2023-03-06T11:11:16.986Z,99552.77
2023-03-06T11:14:17.170Z,99556.39
2023-03-06T11:17:01.976Z,99553.30
2023-03-06T11:19:41.717Z,99552.81
2023-03-06T11:22:20.916Z,99548.66
2023-03-06T11:25:16.986Z,99544.48
2023-03-06T11:28:00.695Z,99543.11
2023-03-06T11:30:48.561Z,99540.60
2023-03-06T11:33:51.256Z,99538.50
2023-03-06T11:36:51.150Z,99538.42
2023-03-06T11:39:48.068Z,99537.17
2023-03-06T11:42:44.713Z,99535.17
2023-03-06T11:45:39.544Z,99533.93
2023-03-06T11:48:29.600Z,99533.89
2023-03-06T11:51:17.047Z,99531.79
2023-03-06T11:53:59.788Z,99530.81
2023-03-06T11:56:43.960Z,99526.76
2023-03-06T11:59:44.783Z,99523.13
2023-03-06T12:02:20.433Z,99522.85
2023-03-06T12:05:02.493Z,99518.58
2023-03-06T12:08:03.304Z,99517.97
2023-03-06T12:13:58.962Z,99513.48
2023-03-06T12:16:59.907Z,99507.66
2023-03-06T12:19:55.003Z,99508.29
2023-03-06T12:22:39.614Z,99501.86
2023-03-06T12:25:36.558Z,99503.02
2023-03-06T12:28:39.544Z,99500.85
2023-03-06T12:31:41.198Z,99497.83
2023-03-06T12:34:47.720Z,99491.79
2023-03-06T12:37:46.882Z,99487.36
2023-03-06T12:40:43.123Z,99489.70
2023-03-06T12:43:47.591Z,99487.06
2023-03-06T12:46:23.750Z,99481.82
2023-03-06T12:49:31.935Z,99484.27
2023-03-06T12:52:09.699Z,99481.27
2023-03-06T12:54:44.586Z,99478.84
2023-03-06T12:57:35.515Z,99481.85
2023-03-06T13:01:04.817Z,99477.35
2023-03-06T13:04:05.123Z,99470.88
2023-03-06T13:06:54.261Z,99469.73
2023-03-06T13:09:37.650Z,99469.12
2023-03-06T13:12:26.157Z,99466.42
2023-03-06T13:15:38.023Z,99465.17
2023-03-06T13:18:56.287Z,99463.41
2023-03-06T13:22:04.336Z,99459.91
2023-03-06T13:24:38.497Z,99459.89
2023-03-06T13:28:01.180Z,99460.86
2023-03-06T13:30:53.266Z,99455.65
2023-03-06T13:33:55.926Z,99460.63
2023-03-06T13:36:34.127Z,99454.67
2023-03-06T13:39:15.359Z,99453.60
2023-03-06T13:42:00.248Z,99454.33
2023-03-06T13:44:48.899Z,99451.20
2023-03-06T13:48:06.533Z,99446.27
2023-03-06T13:50:52.503Z,99443.78
2023-03-06T13:54:20.281Z,99443.00
2023-03-06T13:57:26.319Z,99442.98
2023-03-06T14:00:54.190Z,99443.05
2023-03-06T14:04:11.833Z,99448.17
2023-03-06T14:06:54.030Z,99446.58
2023-03-06T14:09:47.933Z,99440.44
2023-03-06T14:12:42.089Z,99434.88
2023-03-06T14:15:23.659Z,99438.00
2023-03-06T14:18:21.776Z,99433.42
2023-03-06T14:20:58.274Z,99434.95
2023-03-06T14:23:48.204Z,99430.51
2023-03-06T14:26:30.566Z,99425.98
2023-03-06T14:29:03.428Z,99419.33
2023-03-06T14:31:56.416Z,99420.17
2023-03-06T14:34:49.412Z,99417.36
2023-03-06T14:37:32.392Z,99421.04
2023-03-06T14:40:13.908Z,99419.78
2023-03-06T14:43:19.440Z,99419.11
2023-03-06T14:45:56.332Z,99421.73
2023-03-06T14:48:42.087Z,99421.10
2023-03-06T14:51:36.434Z,99421.68
2023-03-06T14:54:29.991Z,99420.65
2023-03-06T14:57:06.122Z,99417.80
2023-03-06T14:59:43.945Z,99414.78
2023-03-06T15:02:27.742Z,99417.46
2023-03-06T15:05:20.681Z,99418.49
2023-03-06T15:07:54.221Z,99421.04
2023-03-06T15:10:30.480Z,99423.22
2023-03-06T15:13:24.971Z,99429.17
2023-03-06T15:16:08.339Z,99425.84
2023-03-06T15:19:00.350Z,99427.05
2023-03-06T15:21:41.938Z,99429.20
2023-03-06T15:24:34.895Z,99427.20
2023-03-06T15:27:17.986Z,99430.77
2023-03-06T15:30:25.129Z,99428.11
2023-03-06T15:33:27.199Z,99425.10
2023-03-06T15:36:04.252Z,99426.60
2023-03-06T15:38:56.521Z,99428.24
2023-03-06T15:41:42.180Z,99425.80
2023-03-06T15:44:35.876Z,99429.17
2023-03-06T15:47:27.178Z,99428.91
2023-03-06T15:50:21.255Z,99427.46
2023-03-06T15:53:15.577Z,99426.73
2023-03-06T15:55:56.284Z,99429.52
2023-03-06T15:58:47.484Z,99428.67
2023-03-06T16:01:43.523Z,99427.29
2023-03-06T16:04:27.692Z,99428.73
2023-03-06T16:07:17.503Z,99428.79
2023-03-06T16:09:48.457Z,99430.44
2023-03-06T16:12:24.560Z,99426.51
2023-03-06T16:14:59.060Z,99426.91
2023-03-06T16:17:53.757Z,99425.45
2023-03-06T16:20:33.429Z,99426.61
2023-03-06T16:23:24.651Z,99425.97
2023-03-06T16:26:08.260Z,99429.04
2023-03-06T16:28:52.078Z,99432.25
2023-03-06T16:31:26.114Z,99435.28
2023-03-06T16:34:07.244Z,99435.00
2023-03-06T16:36:50.938Z,99438.51
2023-03-06T16:39:25.480Z,99436.64
2023-03-06T16:42:06.957Z,99437.27
2023-03-06T16:44:52.212Z,99437.15
2023-03-06T16:47:25.786Z,99436.52
2023-03-06T16:50:20.138Z,99437.61
2023-03-06T16:53:13.366Z,99437.33
2023-03-06T16:55:44.483Z,99438.92
2023-03-06T16:58:25.469Z,99437.20
2023-03-06T17:01:20.246Z,99436.67
2023-03-06T17:03:54.318Z,99437.16
2023-03-06T17:06:31.471Z,99437.00
2023-03-06T17:09:11.716Z,99442.08
2023-03-06T17:12:03.017Z,99443.80
2023-03-06T17:14:52.861Z,99446.06
2023-03-06T17:17:43.838Z,99450.23
2023-03-06T17:20:26.341Z,99453.20
2023-03-06T17:23:07.285Z,99453.13
2023-03-06T17:26:15.121Z,99454.89
2023-03-06T17:28:48.742Z,99460.00
2023-03-06T17:31:31.017Z,99462.63
2023-03-06T17:34:04.068Z,99464.25
2023-03-06T17:36:35.092Z,99467.23
2023-03-06T17:39:08.813Z,99469.89
2023-03-06T17:41:50.263Z,99471.48
2023-03-06T17:44:41.607Z,99469.48
2023-03-06T17:47:32.955Z,99467.79
2023-03-06T17:51:32.553Z,99465.92
2023-03-06T17:53:57.678Z,99468.27
2023-03-06T17:56:47.174Z,99473.36
2023-03-06T17:59:38.704Z,99471.19
2023-03-06T18:02:17.141Z,99467.41
2023-03-06T18:05:10.601Z,99474.11
2023-03-06T18:07:46.170Z,99473.12
2023-03-06T18:10:39.299Z,99477.71
2023-03-06T18:13:14.939Z,99479.52
2023-03-06T18:15:58.340Z,99480.28
2023-03-06T18:18:35.691Z,99487.44
2023-03-06T18:21:27.245Z,99485.23
2023-03-06T18:24:01.468Z,99493.97
2023-03-06T18:26:32.408Z,99489.14
2023-03-06T18:29:05.199Z,99489.84
2023-03-06T18:31:49.911Z,99488.13
2023-03-06T18:34:41.190Z,99486.92
2023-03-06T18:37:32.173Z,99481.09
2023-03-06T18:40:24.870Z,99481.48
2023-03-06T18:43:00.529Z,99476.66
2023-03-06T18:45:57.772Z,99477.23
2023-03-06T18:48:48.784Z,99479.95
2023-03-06T18:51:39.945Z,99482.23
2023-03-06T18:54:31.265Z,99480.52
2023-03-06T18:57:18.091Z,99477.09
2023-03-06T19:00:11.560Z,99479.21
2023-03-06T19:02:52.807Z,99476.77
2023-03-06T19:05:44.673Z,99479.20
2023-03-06T19:08:36.580Z,99474.66
2023-03-06T19:11:19.390Z,99474.81
2023-03-06T19:13:50.284Z,99471.85
2023-03-06T19:16:41.688Z,99472.34
2023-03-06T19:19:26.427Z,99470.21
2023-03-06T19:22:01.960Z,99468.96
2023-03-06T19:24:52.979Z,99467.74
2023-03-06T19:27:44.900Z,99469.64
2023-03-06T19:30:36.474Z,99463.00
2023-03-06T19:33:26.097Z,99460.93
2023-03-06T19:36:18.795Z,99459.91
2023-03-06T19:39:13.944Z,99461.84
2023-03-06T19:41:55.320Z,99459.41
2023-03-06T19:44:29.253Z,99466.73
2023-03-06T19:47:20.713Z,99466.20
2023-03-06T19:49:52.276Z,99467.77
2023-03-06T19:52:21.748Z,99463.08
2023-03-06T19:54:56.109Z,99460.46
2023-03-06T19:57:46.102Z,99457.56
2023-03-06T20:00:37.325Z,99455.67
2023-03-06T20:03:28.427Z,99456.06
2023-03-06T20:06:22.571Z,99457.49
2023-03-06T20:09:14.334Z,99456.30
2023-03-06T20:12:08.165Z,99453.19
2023-03-06T20:14:49.617Z,99455.64
2023-03-06T20:17:31.289Z,99458.40
2023-03-06T20:20:21.256Z,99449.27
2023-03-06T20:23:14.587Z,99444.25
2023-03-06T20:26:10.145Z,99446.66
2023-03-06T20:29:01.740Z,99445.65
2023-03-06T20:31:53.481Z,99442.70
2023-03-06T20:34:44.629Z,99447.59
2023-03-06T20:37:35.728Z,99442.77
2023-03-06T20:40:26.880Z,99440.71
2023-03-06T20:43:18.015Z,99437.28
2023-03-06T20:46:09.047Z,99439.40
2023-03-06T20:49:00.242Z,99436.07
2023-03-06T20:51:51.382Z,99434.00
2023-03-06T20:54:33.505Z,99436.44
2023-03-06T20:57:06.728Z,99437.48
2023-03-06T20:59:57.754Z,99432.43
2023-03-06T21:02:48.854Z,99431.04
2023-03-06T21:05:40.209Z,99430.17
2023-03-06T21:08:22.470Z,99431.58
2023-03-06T21:11:13.853Z,99424.61
2023-03-06T21:13:55.416Z,99424.98
2023-03-06T21:16:45.279Z,99425.50
2023-03-06T21:19:37.118Z,99421.38
2023-03-06T21:22:30.310Z,99415.34
2023-03-06T21:25:09.319Z,99415.73
2023-03-06T21:27:54.295Z,99413.33
2023-03-06T21:30:28.520Z,99415.76
2023-03-06T21:33:01.789Z,99414.55
2023-03-06T21:35:44.926Z,99408.45
2023-03-06T21:38:16.440Z,99410.88
2023-03-06T21:41:12.737Z,99403.55
2023-03-06T21:44:05.825Z,99397.63
2023-03-06T21:46:56.870Z,99391.89
2023-03-06T21:49:49.360Z,99390.30
2023-03-06T21:52:33.436Z,99389.60
2023-03-06T21:55:24.975Z,99387.68
2023-03-06T21:58:14.452Z,99386.27
2023-03-06T22:01:09.155Z,99386.30
2023-03-06T22:04:01.142Z,99388.39
2023-03-06T22:06:52.465Z,99388.92
2023-03-06T22:09:35.813Z,99386.66
2023-03-06T22:12:26.932Z,99386.13
2023-03-06T22:15:10.567Z,99379.45
2023-03-06T22:18:01.651Z,99375.23
2023-03-06T22:20:53.348Z,99375.57
2023-03-06T22:23:44.957Z,99376.39
2023-03-06T22:26:27.240Z,99375.85
2023-03-06T22:29:16.833Z,99374.97
2023-03-06T22:32:08.766Z,99375.48
2023-03-06T22:34:59.861Z,99377.75
2023-03-06T22:37:33.793Z,99373.95
2023-03-06T22:40:24.788Z,99371.74
2023-03-06T22:43:17.524Z,99370.78
2023-03-06T22:46:05.729Z,99368.56
2023-03-06T22:48:58.623Z,99364.85
2023-03-06T22:51:38.729Z,99363.85
2023-03-06T22:54:29.764Z,99361.61
2023-03-06T22:57:00.752Z,99353.95
2023-03-06T22:59:51.711Z,99353.29
2023-03-06T23:02:44.013Z,99350.84
2023-03-06T23:05:34.997Z,99347.85
2023-03-06T23:08:26.204Z,99341.45
2023-03-06T23:10:56.925Z,99338.98
2023-03-06T23:13:46.234Z,99335.00
2023-03-06T23:16:35.749Z,99333.80
2023-03-06T23:19:25.071Z,99327.04
2023-03-06T23:22:15.223Z,99323.23
2023-03-06T23:25:06.122Z,99326.21
2023-03-06T23:27:57.100Z,99334.89
2023-03-06T23:30:48.186Z,99339.04
2023-03-06T23:33:39.942Z,99342.30
2023-03-06T23:36:31.567Z,99337.58
2023-03-06T23:39:20.929Z,99342.42
2023-03-06T23:42:11.793Z,99339.29
2023-03-06T23:44:52.759Z,99336.11
2023-03-06T23:47:43.602Z,99342.84
2023-03-06T23:50:34.692Z,99343.50
2023-03-06T23:53:17.166Z,99340.35
2023-03-06T23:55:56.390Z,99342.77
2023-03-06T23:58:38.772Z,99341.04
